Time;durP1;ratioP1;P1;durP2;ratioP2;P2;SDS_P1;SDS_P2;PMS_P1;PMS_P2;Temp;Humidity;BMP_temperature;BMP_pressure;BME280_temperature;BME280_humidity;BME280_pressure;Samples;Min_cycle;Max_cycle;Signal;HPM_P1;HPM_P2
2021/03/13 00:00:41;;;;;;;46.88;24.85;;;6.30;87.60;;;;;;1777444;80;21166;-77
2021/03/13 00:03:11;;;;;;;40.05;20.97;;;6.20;87.70;;;;;;1788602;80;21250;-77
2021/03/13 00:05:42;;;;;;;46.00;22.82;;;6.30;88.50;;;;;;1786631;80;21292;-76
2021/03/13 00:08:11;;;;;;;41.70;22.75;;;6.30;88.30;;;;;;1790072;80;21289;-77
2021/03/13 00:10:42;;;;;;;44.03;21.02;;;6.20;89.30;;;;;;1776164;80;21174;-77
2021/03/13 00:13:11;;;;;;;39.70;21.57;;;6.20;89.90;;;;;;1772180;80;21170;-77
2021/03/13 00:15:41;;;;;;;45.03;22.75;;;6.30;90.10;;;;;;1784868;80;21178;-74
2021/03/13 00:18:10;;;;;;;45.03;23.67;;;6.40;89.10;;;;;;1776907;80;21165;-75
2021/03/13 00:20:41;;;;;;;41.33;22.10;;;6.40;88.40;;;;;;1791544;80;21760;-74
2021/03/13 00:23:10;;;;;;;48.42;23.20;;;6.50;87.90;;;;;;1777678;80;21186;-74
2021/03/13 00:25:39;;;;;;;40.48;22.27;;;6.40;88.20;;;;;;1780834;80;21162;-74
2021/03/13 00:28:09;;;;;;;39.83;20.97;;;6.40;88.60;;;;;;1781015;80;21174;-74
2021/03/13 00:30:46;;;;;;;39.80;19.75;;;6.40;87.30;;;;;;1779677;80;21234;-75
2021/03/13 00:33:21;;;;;;;33.73;18.62;;;6.40;85.60;;;;;;1784570;80;21617;-74
2021/03/13 00:35:52;;;;;;;36.68;18.55;;;6.40;85.60;;;;;;1778307;80;21193;-74
2021/03/13 00:38:23;;;;;;;29.72;16.50;;;6.50;85.30;;;;;;1790935;80;21297;-75
2021/03/13 00:40:52;;;;;;;31.48;16.73;;;6.60;85.20;;;;;;1776804;80;21166;-75
2021/03/13 00:43:20;;;;;;;31.45;16.97;;;6.70;84.80;;;;;;1781030;80;21296;-74
2021/03/13 00:45:49;;;;;;;28.80;15.25;;;6.60;85.00;;;;;;1782320;80;21636;-74
2021/03/13 00:48:17;;;;;;;27.40;15.43;;;6.60;83.80;;;;;;1786224;80;21600;-75
2021/03/13 00:50:59;;;;;;;27.93;15.40;;;6.50;83.80;;;;;;1784151;80;21328;-75
2021/03/13 00:53:27;;;;;;;29.30;16.77;;;6.50;84.00;;;;;;1690647;84;21583;-74
2021/03/13 00:55:55;;;;;;;31.45;17.73;;;6.50;83.80;;;;;;1683049;84;21183;-74
2021/03/13 00:58:24;;;;;;;30.72;16.20;;;6.50;83.90;;;;;;1677822;84;21182;-74
2021/03/13 01:00:56;;;;;;;27.05;15.18;;;6.50;83.50;;;;;;1681807;84;21227;-75
2021/03/13 01:03:26;;;;;;;26.42;13.55;;;6.60;82.60;;;;;;1682438;84;21244;-74
2021/03/13 01:05:53;;;;;;;24.20;13.65;;;6.60;81.60;;;;;;1682481;84;21846;-74
2021/03/13 01:08:21;;;;;;;26.02;14.03;;;6.50;81.90;;;;;;1680200;84;21205;-74
2021/03/13 01:10:53;;;;;;;22.25;12.63;;;6.40;82.10;;;;;;1690491;84;21220;-73
2021/03/13 01:13:23;;;;;;;23.20;12.98;;;6.50;83.10;;;;;;1715671;83;21168;-73
2021/03/13 01:15:52;;;;;;;24.87;13.78;;;6.50;82.80;;;;;;1719191;83;21590;-74
2021/03/13 01:18:21;;;;;;;23.55;13.40;;;6.50;82.60;;;;;;1719888;83;21156;-74
2021/03/13 01:20:51;;;;;;;23.42;13.60;;;6.60;82.10;;;;;;1719482;83;21191;-73
2021/03/13 01:23:20;;;;;;;26.87;14.30;;;6.70;82.40;;;;;;1699192;83;21192;-73
2021/03/13 01:25:48;;;;;;;26.48;15.18;;;6.80;81.70;;;;;;1690287;84;21152;-73
2021/03/13 01:28:16;;;;;;;33.92;18.35;;;6.70;81.80;;;;;;1706266;84;21603;-74
2021/03/13 01:30:45;;;;;;;36.60;19.80;;;6.70;81.20;;;;;;1685452;84;21139;-75
2021/03/13 01:33:13;;;;;;;35.95;19.17;;;6.50;80.80;;;;;;1691175;84;21219;-74
2021/03/13 01:35:41;;;;;;;40.65;20.80;;;6.40;81.70;;;;;;1689661;84;21634;-75
2021/03/13 01:38:09;;;;;;;39.85;21.45;;;6.40;81.70;;;;;;1688780;84;21219;-76
2021/03/13 01:40:39;;;;;;;35.88;19.25;;;6.50;81.40;;;;;;1705915;84;21183;-74
2021/03/13 01:43:06;;;;;;;36.45;18.50;;;6.40;82.00;;;;;;1733464;82;21582;-75
2021/03/13 01:45:34;;;;;;;36.40;18.82;;;6.40;82.20;;;;;;1716510;83;21224;-75
2021/03/13 01:48:03;;;;;;;33.60;18.12;;;6.40;82.20;;;;;;1680149;84;21184;-75
2021/03/13 01:50:32;;;;;;;34.20;17.00;;;6.40;83.50;;;;;;1674931;84;21183;-74
2021/03/13 01:53:00;;;;;;;31.48;17.27;;;6.50;83.60;;;;;;1684617;84;21175;-75
2021/03/13 01:55:30;;;;;;;31.35;16.87;;;6.40;83.30;;;;;;1679197;84;21598;-75
2021/03/13 01:58:00;;;;;;;33.48;16.90;;;6.40;84.50;;;;;;1677766;84;21208;-76
2021/03/13 02:00:30;;;;;;;31.45;16.35;;;6.30;85.90;;;;;;1685677;84;21179;-75
2021/03/13 02:03:00;;;;;;;30.82;17.48;;;6.40;86.30;;;;;;1715312;83;21231;-75
2021/03/13 02:05:36;;;;;;;35.00;17.60;;;6.40;85.80;;;;;;1715600;83;21599;-75
2021/03/13 02:08:20;;;;;;;;;;;6.50;87.10;;;;;;1716746;83;21618;-75
2021/03/13 02:10:59;;;;;;;28.42;15.70;;;6.40;87.80;;;;;;1681737;84;20428;-75
2021/03/13 02:13:45;;;;;;;33.67;16.32;;;6.40;87.90;;;;;;1688433;84;21584;-74
2021/03/13 02:16:50;;;;;;;27.82;15.30;;;6.40;90.10;;;;;;1714483;82;21224;-74
2021/03/13 02:20:06;;;;;;;30.62;15.80;;;6.40;90.40;;;;;;1709613;83;21590;-75
2021/03/13 02:22:41;;;;;;;31.65;17.00;;;6.50;90.30;;;;;;1736697;82;21182;-76
2021/03/13 02:25:41;;;;;;;35.63;18.42;;;6.60;90.60;;;;;;1713634;83;21596;-77
2021/03/13 02:28:42;;;;;;;37.98;19.60;;;6.60;89.80;;;;;;1729995;82;21152;-75
2021/03/13 02:31:12;;;;;;;39.70;21.35;;;6.80;87.00;;;;;;1716210;83;21210;-74
2021/03/13 02:33:43;;;;;;;41.85;21.50;;;7.00;85.30;;;;;;1715413;83;21195;-77
2021/03/13 02:36:31;;;;;;;36.05;18.02;;;7.20;84.80;;;;;;1719364;83;21206;-76
2021/03/13 02:39:08;;;;;;;33.65;17.67;;;7.10;84.90;;;;;;1715807;83;21214;-76
2021/03/13 02:41:42;;;;;;;17.40;8.63;;;7.00;85.10;;;;;;1713785;83;21179;-76
2021/03/13 02:44:15;;;;;;;7.92;4.28;;;7.10;89.50;;;;;;1711564;83;21202;-76
2021/03/13 02:46:50;;;;;;;6.97;2.87;;;7.30;91.30;;;;;;1685917;84;21225;-76
2021/03/13 02:49:23;;;;;;;5.47;3.25;;;7.50;91.50;;;;;;1735375;82;21218;-75
2021/03/13 02:51:54;;;;;;;7.92;3.87;;;7.60;92.20;;;;;;1711542;83;21638;-76
2021/03/13 02:54:25;;;;;;;23.10;12.03;;;7.70;91.70;;;;;;1717220;83;21171;-75
2021/03/13 02:56:56;;;;;;;52.35;27.05;;;7.80;90.20;;;;;;1698692;83;21155;-76
2021/03/13 02:59:26;;;;;;;58.40;30.52;;;7.70;84.00;;;;;;1681484;83;21206;-76
2021/03/13 03:01:58;;;;;;;58.85;30.88;;;7.70;84.50;;;;;;1729849;82;21608;-75
2021/03/13 03:04:28;;;;;;;63.30;33.18;;;7.60;83.70;;;;;;1720590;83;21215;-75
2021/03/13 03:06:58;;;;;;;63.60;31.17;;;7.50;85.00;;;;;;1718753;83;21619;-75
2021/03/13 03:09:28;;;;;;;57.35;30.68;;;7.40;85.70;;;;;;1708236;83;21637;-76
2021/03/13 03:11:57;;;;;;;66.12;32.73;;;7.40;86.50;;;;;;1707650;83;21161;-74
2021/03/13 03:14:27;;;;;;;65.83;32.63;;;7.30;87.20;;;;;;1708921;83;21576;-73
2021/03/13 03:17:01;;;;;;;60.08;31.12;;;7.10;87.90;;;;;;1691986;83;21619;-73
2021/03/13 03:19:34;;;;;;;66.23;33.30;;;7.10;89.40;;;;;;1728201;82;21202;-73
2021/03/13 03:22:03;;;;;;;56.30;30.82;;;7.20;89.00;;;;;;1713866;82;21253;-74
2021/03/13 03:24:33;;;;;;;60.50;30.37;;;7.10;89.60;;;;;;1718719;83;21192;-75
2021/03/13 03:27:01;;;;;;;60.10;30.62;;;7.10;89.40;;;;;;1676659;84;21185;-75
2021/03/13 03:29:30;;;;;;;60.48;30.65;;;7.10;88.40;;;;;;1731040;82;21159;-73
2021/03/13 03:31:59;;;;;;;59.55;30.72;;;7.10;89.30;;;;;;1709830;83;21612;-73
2021/03/13 03:34:28;;;;;;;59.63;29.95;;;7.00;90.50;;;;;;1712331;83;21163;-75
2021/03/13 03:36:56;;;;;;;58.38;29.23;;;7.00;90.20;;;;;;1678387;84;21180;-74
2021/03/13 03:39:24;;;;;;;55.88;29.00;;;7.00;90.30;;;;;;1715679;83;21188;-74
2021/03/13 03:41:57;;;;;;;56.23;28.60;;;6.90;90.30;;;;;;1710396;83;21187;-75
2021/03/13 03:44:28;;;;;;;50.40;27.02;;;6.90;90.00;;;;;;1727104;82;21618;-77
2021/03/13 03:47:01;;;;;;;53.90;27.77;;;6.80;90.50;;;;;;1714328;83;21213;-76
2021/03/13 03:49:33;;;;;;;49.75;25.68;;;6.70;90.90;;;;;;1684164;84;21160;-76
2021/03/13 03:52:10;;;;;;;47.90;25.30;;;6.60;91.20;;;;;;1714757;83;21167;-75
2021/03/13 03:54:39;;;;;;;51.48;26.17;;;6.60;91.20;;;;;;1718667;83;21215;-74
2021/03/13 03:57:10;;;;;;;49.33;24.90;;;6.70;90.90;;;;;;1712900;83;21254;-75
2021/03/13 03:59:43;;;;;;;51.68;26.82;;;6.50;91.90;;;;;;1718445;83;21168;-74
2021/03/13 04:02:11;;;;;;;51.30;27.73;;;6.30;92.70;;;;;;1718675;83;21591;-74
2021/03/13 04:04:41;;;;;;;49.30;26.55;;;6.20;93.20;;;;;;1731049;82;21194;-75
2021/03/13 04:07:10;;;;;;;51.40;26.48;;;6.20;94.20;;;;;;1716289;83;21175;-76
2021/03/13 04:09:40;;;;;;;52.08;27.17;;;6.00;94.80;;;;;;1697753;84;21200;-75
2021/03/13 04:12:11;;;;;;;51.80;26.93;;;5.90;95.90;;;;;;1690395;84;21208;-75
2021/03/13 04:14:41;;;;;;;50.73;25.45;;;5.90;96.30;;;;;;1692646;84;21310;-75
2021/03/13 04:17:09;;;;;;;52.65;24.92;;;6.00;96.20;;;;;;1696312;84;21243;-75
2021/03/13 04:19:39;;;;;;;46.23;24.05;;;6.00;96.10;;;;;;1683505;84;21204;-75
2021/03/13 04:22:07;;;;;;;47.70;24.85;;;6.10;95.90;;;;;;1691638;84;21192;-75
2021/03/13 04:24:39;;;;;;;43.92;23.18;;;6.10;96.40;;;;;;1698258;84;21619;-75
2021/03/13 04:27:07;;;;;;;47.03;23.83;;;6.20;96.20;;;;;;1689200;84;21609;-75
2021/03/13 04:29:35;;;;;;;44.35;22.20;;;6.20;96.00;;;;;;1689130;84;21184;-76
2021/03/13 04:32:04;;;;;;;38.65;20.45;;;6.40;95.00;;;;;;1697432;84;21223;-75
2021/03/13 04:34:34;;;;;;;41.65;22.02;;;6.70;93.60;;;;;;1690939;84;21172;-76
2021/03/13 04:37:03;;;;;;;44.38;23.83;;;6.90;92.30;;;;;;1696142;84;21223;-72
2021/03/13 04:39:32;;;;;;;45.30;24.05;;;6.90;92.00;;;;;;1700033;84;21188;-74
2021/03/13 04:42:01;;;;;;;50.67;24.23;;;7.00;91.90;;;;;;1693834;84;21626;-74
2021/03/13 04:44:29;;;;;;;47.60;24.35;;;7.10;91.80;;;;;;1701289;83;21164;-74
2021/03/13 04:46:57;;;;;;;47.58;25.02;;;7.10;91.60;;;;;;1715221;83;21187;-73
2021/03/13 04:49:26;;;;;;;45.63;23.98;;;7.30;91.00;;;;;;1710917;83;21140;-73
2021/03/13 04:51:59;;;;;;;50.33;25.55;;;7.30;90.10;;;;;;1694341;84;21194;-73
2021/03/13 04:54:23;;;;;;;45.35;23.90;;;7.30;90.70;;;;;;1711856;83;21120;-74
2021/03/13 04:56:53;;;;;;;49.13;25.57;;;7.30;90.30;;;;;;1714281;83;21176;-73
2021/03/13 04:59:21;;;;;;;45.08;24.27;;;7.20;90.60;;;;;;1695362;84;21211;-73
2021/03/13 05:01:48;;;;;;;46.02;24.37;;;7.20;90.80;;;;;;1694571;83;21184;-74
2021/03/13 05:04:16;;;;;;;46.48;24.98;;;7.30;90.50;;;;;;1685006;84;21615;-72
2021/03/13 05:06:44;;;;;;;43.98;24.37;;;7.40;90.20;;;;;;1697566;84;22008;-74
2021/03/13 05:09:12;;;;;;;45.40;24.45;;;7.50;89.70;;;;;;1691740;84;21219;-76
2021/03/13 05:11:40;;;;;;;49.30;26.25;;;7.50;88.80;;;;;;1695053;84;21651;-75
2021/03/13 05:14:08;;;;;;;47.27;26.52;;;7.50;89.10;;;;;;1698448;84;21235;-75
2021/03/13 05:16:35;;;;;;;48.55;25.65;;;7.50;88.70;;;;;;1698844;84;21606;-75
2021/03/13 05:19:03;;;;;;;47.35;25.00;;;7.40;88.80;;;;;;1717309;83;21192;-76
2021/03/13 05:21:31;;;;;;;46.48;25.65;;;7.40;89.60;;;;;;1720373;83;21171;-74
2021/03/13 05:23:58;;;;;;;50.45;25.88;;;7.30;90.50;;;;;;1680686;84;21271;-75
2021/03/13 05:26:26;;;;;;;43.85;24.02;;;7.10;90.80;;;;;;1713101;83;21860;-74
2021/03/13 05:28:53;;;;;;;44.77;23.92;;;6.90;92.00;;;;;;1716109;83;22433;-74
2021/03/13 05:31:22;;;;;;;42.15;23.22;;;6.80;92.70;;;;;;1733949;82;21206;-74
2021/03/13 05:33:52;;;;;;;47.05;24.55;;;6.70;93.30;;;;;;1728752;81;21236;-73
2021/03/13 05:36:19;;;;;;;45.80;23.98;;;6.60;93.90;;;;;;1732057;81;21670;-74
2021/03/13 05:38:47;;;;;;;45.98;24.00;;;6.70;94.60;;;;;;1726663;81;21191;-75
2021/03/13 05:41:17;;;;;;;45.73;24.37;;;6.70;93.90;;;;;;1742711;81;21253;-75
2021/03/13 05:43:45;;;;;;;42.33;23.22;;;6.60;94.30;;;;;;1729071;81;21203;-75
2021/03/13 05:46:18;;;;;;;44.77;23.83;;;6.60;95.40;;;;;;1698732;83;21254;-73
2021/03/13 05:48:46;;;;;;;41.58;21.82;;;6.70;95.20;;;;;;1685383;83;21204;-74
2021/03/13 05:51:15;;;;;;;45.88;24.00;;;6.80;94.50;;;;;;1711391;82;21165;-76
2021/03/13 05:53:43;;;;;;;46.80;24.27;;;6.90;94.50;;;;;;1727704;82;21672;-72
2021/03/13 05:56:11;;;;;;;49.55;25.15;;;7.00;94.30;;;;;;1715923;82;21176;-76
2021/03/13 05:58:39;;;;;;;45.85;24.07;;;7.10;94.10;;;;;;1736077;81;21226;-79
2021/03/13 06:01:08;;;;;;;46.40;25.30;;;7.20;93.60;;;;;;1740742;81;21167;-81
2021/03/13 06:03:35;;;;;;;47.08;26.02;;;7.20;93.20;;;;;;1735051;81;21238;-76
2021/03/13 06:06:08;;;;;;;49.70;26.23;;;7.20;93.20;;;;;;1713739;83;21211;-83
2021/03/13 06:08:37;;;;;;;48.92;26.05;;;7.30;93.00;;;;;;1716632;83;21176;-80
2021/03/13 06:11:04;;;;;;;50.50;25.72;;;7.30;92.90;;;;;;1714671;83;21171;-83
2021/03/13 06:13:34;;;;;;;49.42;27.02;;;7.40;93.10;;;;;;1705097;83;21263;-82
2021/03/13 06:16:03;;;;;;;47.15;26.15;;;7.40;92.20;;;;;;1717864;82;21228;-84
2021/03/13 06:18:52;;;;;;;52.58;27.37;;;7.40;91.90;;;;;;1730042;81;21180;-89
2021/03/13 06:21:31;;;;;;;46.88;25.68;;;7.60;92.20;;;;;;1732114;82;21127;-82
2021/03/13 06:24:11;;;;;;;50.52;26.23;;;7.60;91.80;;;;;;1722556;81;21667;-80
2021/03/13 06:27:00;;;;;;;49.42;26.30;;;7.70;91.90;;;;;;1709897;82;21227;-79
2021/03/13 06:29:32;;;;;;;45.10;24.87;;;7.50;91.50;;;;;;1691603;84;21234;-82
2021/03/13 06:32:11;;;;;;;45.35;23.47;;;7.70;90.90;;;;;;1695882;83;21165;-82
2021/03/13 06:34:43;;;;;;;47.90;26.15;;;7.90;90.00;;;;;;1708658;82;21583;-82
2021/03/13 06:37:25;;;;;;;44.05;25.08;;;8.00;90.40;;;;;;1686322;84;21211;-78
2021/03/13 06:39:58;;;;;;;47.45;25.30;;;8.00;88.80;;;;;;1674835;84;21203;-76
2021/03/13 06:42:29;;;;;;;46.85;24.98;;;7.90;88.80;;;;;;1712620;81;21160;-76
2021/03/13 06:45:07;;;;;;;47.70;25.90;;;7.80;89.70;;;;;;1714777;82;21187;-76
2021/03/13 06:47:37;;;;;;;46.40;25.57;;;7.70;89.40;;;;;;1710464;82;21167;-75
2021/03/13 06:50:26;;;;;;;48.42;25.32;;;7.70;90.90;;;;;;1700075;83;21256;-72
2021/03/13 06:53:08;;;;;;;44.50;25.57;;;7.90;90.60;;;;;;1706553;82;21191;-74
2021/03/13 06:55:47;;;;;;;43.10;23.67;;;8.00;90.10;;;;;;1817984;77;23453;-73
2021/03/13 06:58:15;;;;;;;46.28;26.00;;;8.10;90.40;;;;;;1799547;79;21125;-77
2021/03/13 07:00:43;;;;;;;43.23;24.27;;;8.10;88.90;;;;;;1803548;78;21132;-74
2021/03/13 07:03:15;;;;;;;41.85;23.38;;;8.20;88.30;;;;;;1805163;78;21133;-77
2021/03/13 07:05:45;;;;;;;33.33;19.00;;;8.10;87.60;;;;;;1801601;78;21132;-73
2021/03/13 07:08:32;;;;;;;40.45;22.25;;;8.40;86.40;;;;;;1812637;78;21145;-73
2021/03/13 07:11:10;;;;;;;38.70;22.27;;;8.60;85.10;;;;;;1807483;78;21164;-76
2021/03/13 07:13:48;;;;;;;40.28;22.07;;;8.60;85.20;;;;;;1797920;80;21164;-76
2021/03/13 07:16:27;;;;;;;41.80;22.98;;;8.70;83.90;;;;;;1748926;81;21615;-80
2021/03/13 07:19:09;;;;;;;40.52;22.17;;;8.70;83.80;;;;;;1762631;81;21148;-85
2021/03/13 07:21:41;;;;;;;40.55;23.05;;;8.70;84.40;;;;;;1762271;81;21141;-78
2021/03/13 07:24:13;;;;;;;43.75;23.80;;;8.80;83.90;;;;;;1739157;81;21125;-70
2021/03/13 07:26:46;;;;;;;41.73;22.85;;;9.00;82.90;;;;;;1734672;83;21121;-81
2021/03/13 07:29:17;;;;;;;38.42;21.95;;;9.00;82.80;;;;;;1733855;83;21291;-80
2021/03/13 07:32:00;;;;;;;34.45;20.37;;;8.90;82.30;;;;;;1734035;83;21156;-76
2021/03/13 07:34:32;;;;;;;34.43;19.02;;;8.80;83.50;;;;;;1733971;81;21295;-74
2021/03/13 07:37:04;;;;;;;31.07;18.37;;;8.80;84.30;;;;;;1733879;83;21185;-77
2021/03/13 07:39:41;;;;;;;35.48;19.55;;;8.80;82.80;;;;;;1734450;82;21299;-72
2021/03/13 07:42:18;;;;;;;37.83;21.57;;;9.10;83.70;;;;;;1732985;83;21161;-73
2021/03/13 07:44:47;;;;;;;35.40;18.42;;;9.10;82.90;;;;;;1733895;82;21653;-73
2021/03/13 07:47:19;;;;;;;37.75;19.20;;;9.10;82.70;;;;;;1734127;82;21604;-73
2021/03/13 07:49:47;;;;;;;31.40;17.30;;;9.20;83.00;;;;;;1734178;82;21593;-73
2021/03/13 07:52:18;;;;;;;28.98;16.80;;;9.30;82.90;;;;;;1734276;82;21157;-74
2021/03/13 07:54:50;;;;;;;28.85;16.32;;;9.40;82.20;;;;;;1734376;82;21212;-74
2021/03/13 07:57:20;;;;;;;41.33;22.40;;;9.50;80.80;;;;;;1735053;83;21114;-74
2021/03/13 07:59:53;;;;;;;40.33;21.25;;;9.80;78.90;;;;;;1735058;82;21113;-74
2021/03/13 08:02:35;;;;;;;37.23;22.17;;;9.80;78.30;;;;;;1734923;82;21137;-74
2021/03/13 08:05:17;;;;;;;36.53;21.37;;;10.00;77.60;;;;;;1734977;83;21161;-73
2021/03/13 08:08:05;;;;;;;35.95;20.62;;;10.10;77.10;;;;;;1734548;82;21165;-73
2021/03/13 08:10:53;;;;;;;35.30;19.65;;;10.60;75.50;;;;;;1734466;83;21300;-73
2021/03/13 08:13:33;;;;;;;38.90;20.48;;;11.00;72.90;;;;;;1734540;83;21678;-73
2021/03/13 08:16:18;;;;;;;36.08;20.88;;;11.30;71.60;;;;;;1734660;82;21149;-73
2021/03/13 08:18:54;;;;;;;36.88;21.75;;;11.60;69.90;;;;;;1734474;83;21126;-74
2021/03/13 08:21:28;;;;;;;40.60;22.82;;;12.00;68.00;;;;;;1734392;82;21259;-74
2021/03/13 08:23:58;;;;;;;38.40;22.25;;;12.30;66.10;;;;;;1734368;82;21272;-74
2021/03/13 08:26:40;;;;;;;35.33;21.33;;;12.40;65.60;;;;;;1734365;82;21280;-74
2021/03/13 08:29:11;;;;;;;34.00;20.80;;;12.50;64.50;;;;;;1734952;82;21532;-74
2021/03/13 08:31:46;;;;;;;34.70;19.25;;;12.50;64.80;;;;;;1734349;83;21130;-74
2021/03/13 08:34:23;;;;;;;34.75;20.70;;;12.40;64.30;;;;;;1734332;82;21161;-74
2021/03/13 08:36:51;;;;;;;37.53;21.15;;;12.30;64.60;;;;;;1734477;82;21146;-74
2021/03/13 08:39:22;;;;;;;32.95;20.40;;;12.40;64.40;;;;;;1734488;82;21802;-74
2021/03/13 08:41:52;;;;;;;36.68;21.17;;;12.40;64.40;;;;;;1734363;82;21276;-74
2021/03/13 08:44:31;;;;;;;38.70;18.87;;;12.40;64.20;;;;;;1734355;82;21283;-74
2021/03/13 08:47:08;;;;;;;36.08;20.82;;;12.50;63.70;;;;;;1734426;82;21320;-74
2021/03/13 08:49:47;;;;;;;30.77;19.70;;;12.50;63.70;;;;;;1734513;82;21337;-74
2021/03/13 08:52:21;;;;;;;32.53;19.37;;;12.70;62.90;;;;;;1734510;83;21272;-74
2021/03/13 08:54:51;;;;;;;32.33;19.55;;;12.70;61.90;;;;;;1730248;82;21173;-74
2021/03/13 08:57:31;;;;;;;30.15;18.95;;;12.80;62.20;;;;;;1789445;80;21117;-75
2021/03/13 09:00:01;;;;;;;25.35;16.85;;;12.90;61.40;;;;;;1789682;80;21727;-73
2021/03/13 09:02:34;;;;;;;29.65;17.30;;;13.00;59.90;;;;;;1789798;80;21546;-75
2021/03/13 09:05:07;;;;;;;31.48;18.17;;;12.90;60.90;;;;;;1789682;80;21124;-73
2021/03/13 09:07:36;;;;;;;28.45;16.40;;;13.00;61.00;;;;;;1789601;80;21686;-74
2021/03/13 09:10:06;;;;;;;27.60;16.48;;;12.90;60.80;;;;;;1789716;80;21105;-73
2021/03/13 09:12:37;;;;;;;28.55;17.35;;;12.90;60.50;;;;;;1789701;80;21117;-74
2021/03/13 09:15:08;;;;;;;26.25;14.25;;;12.80;61.00;;;;;;1789568;80;21173;-74
2021/03/13 09:17:37;;;;;;;31.30;17.30;;;12.80;59.90;;;;;;1789675;80;21120;-73
2021/03/13 09:20:17;;;;;;;31.87;18.17;;;12.80;61.30;;;;;;1789689;80;21136;-73
2021/03/13 09:22:48;;;;;;;26.33;15.53;;;12.90;61.10;;;;;;1789788;80;21145;-74
2021/03/13 09:25:21;;;;;;;26.17;16.42;;;12.80;61.20;;;;;;1789688;80;21144;-74
2021/03/13 09:27:51;;;;;;;25.27;15.40;;;12.70;60.80;;;;;;1789469;80;21149;-74
2021/03/13 09:30:27;;;;;;;20.85;12.65;;;12.60;61.20;;;;;;1789732;80;21156;-74
2021/03/13 09:32:55;;;;;;;19.75;11.63;;;12.70;60.00;;;;;;1789607;80;21266;-74
2021/03/13 09:35:26;;;;;;;24.10;14.00;;;12.80;59.20;;;;;;1789390;80;21282;-73
2021/03/13 09:37:54;;;;;;;14.58;8.63;;;13.00;59.20;;;;;;1789491;80;21259;-75
2021/03/13 09:40:26;;;;;;;20.08;12.05;;;13.00;57.10;;;;;;1789517;80;21139;-73
2021/03/13 09:42:54;;;;;;;18.82;11.30;;;12.90;58.30;;;;;;1789763;80;21144;-74
2021/03/13 09:45:24;;;;;;;15.50;9.05;;;12.90;58.50;;;;;;1789480;80;21302;-74
2021/03/13 09:48:03;;;;;;;15.00;8.65;;;12.80;57.80;;;;;;1789903;80;21113;-74
2021/03/13 09:50:39;;;;;;;18.77;11.60;;;12.70;57.60;;;;;;1789476;80;21303;-73
2021/03/13 09:53:08;;;;;;;19.37;10.30;;;12.80;58.50;;;;;;1789912;80;21135;-74
2021/03/13 09:55:38;;;;;;;20.43;10.03;;;12.90;58.40;;;;;;1792693;80;21450;-74
2021/03/13 09:58:06;;;;;;;16.57;9.25;;;13.00;58.80;;;;;;1795270;80;21298;-74
2021/03/13 10:00:40;;;;;;;14.70;8.60;;;13.00;57.70;;;;;;1795499;80;21128;-75
2021/03/13 10:03:16;;;;;;;20.05;9.93;;;13.00;57.10;;;;;;1795605;80;21330;-75
2021/03/13 10:05:52;;;;;;;15.05;8.55;;;13.00;57.40;;;;;;1795251;80;21716;-75
2021/03/13 10:08:22;;;;;;;12.85;7.03;;;13.00;57.60;;;;;;1795585;80;21128;-74
2021/03/13 10:10:53;;;;;;;12.82;7.45;;;13.00;56.00;;;;;;1795296;80;21298;-74
2021/03/13 10:13:23;;;;;;;15.20;9.50;;;13.10;56.80;;;;;;1795467;80;21282;-74
2021/03/13 10:15:50;;;;;;;17.85;10.45;;;13.00;56.50;;;;;;1795239;80;21145;-73
2021/03/13 10:18:28;;;;;;;16.17;9.93;;;12.90;57.60;;;;;;1795234;80;21259;-74
2021/03/13 10:20:59;;;;;;;12.07;6.62;;;12.90;57.00;;;;;;1795399;80;21108;-74
2021/03/13 10:23:36;;;;;;;14.53;7.90;;;12.70;55.20;;;;;;1795388;80;21669;-74
2021/03/13 10:26:14;;;;;;;17.32;10.03;;;12.70;55.70;;;;;;1795284;80;21258;-73
2021/03/13 10:28:48;;;;;;;20.30;10.75;;;12.70;56.80;;;;;;1795282;80;21259;-74
2021/03/13 10:31:23;;;;;;;14.05;8.65;;;12.70;57.50;;;;;;1795262;80;21258;-74
2021/03/13 10:33:52;;;;;;;12.13;7.40;;;12.70;56.60;;;;;;1795139;80;21140;-74
2021/03/13 10:36:42;;;;;;;15.25;7.28;;;12.70;55.00;;;;;;1795241;80;21765;-74
2021/03/13 10:39:10;;;;;;;12.13;6.85;;;12.60;55.10;;;;;;1795234;80;21134;-74
2021/03/13 10:41:49;;;;;;;8.58;5.47;;;12.70;55.50;;;;;;1795395;80;21151;-74
2021/03/13 10:44:17;;;;;;;10.63;4.75;;;12.70;55.30;;;;;;1794841;80;21143;-74
2021/03/13 10:46:45;;;;;;;9.00;5.50;;;12.70;54.40;;;;;;1795220;80;21137;-74
2021/03/13 10:49:13;;;;;;;12.65;6.00;;;12.80;54.40;;;;;;1795411;80;21154;-74
2021/03/13 10:51:41;;;;;;;11.48;6.95;;;12.90;55.20;;;;;;1795233;80;21136;-74
2021/03/13 10:54:24;;;;;;;13.50;7.30;;;12.90;55.20;;;;;;1795205;80;21739;-75
2021/03/13 10:56:52;;;;;;;11.50;7.15;;;12.80;54.40;;;;;;1789630;80;21120;-74
2021/03/13 10:59:34;;;;;;;12.73;7.55;;;12.80;55.80;;;;;;1789478;80;21706;-74
2021/03/13 11:02:03;;;;;;;13.48;7.85;;;12.90;55.40;;;;;;1789573;80;21116;-75
2021/03/13 11:04:31;;;;;;;19.07;7.80;;;12.90;55.80;;;;;;1789572;80;21140;-74
2021/03/13 11:06:59;;;;;;;13.68;8.45;;;12.90;55.80;;;;;;1789680;80;21140;-74
2021/03/13 11:09:29;;;;;;;15.20;7.55;;;12.90;55.60;;;;;;1789415;80;21290;-75
2021/03/13 11:11:57;;;;;;;14.40;6.95;;;12.90;54.90;;;;;;1789404;80;21701;-74
2021/03/13 11:14:25;;;;;;;12.55;7.67;;;13.00;54.30;;;;;;1789525;80;21121;-73
2021/03/13 11:16:53;;;;;;;15.93;7.70;;;13.00;54.50;;;;;;1789406;80;21722;-74
2021/03/13 11:19:24;;;;;;;16.23;7.87;;;13.10;54.70;;;;;;1789404;80;21109;-74
2021/03/13 11:21:50;;;;;;;10.60;6.35;;;13.10;54.50;;;;;;1789296;80;21705;-75
2021/03/13 11:24:19;;;;;;;12.58;7.10;;;13.10;54.00;;;;;;1788862;80;21291;-74
2021/03/13 11:26:47;;;;;;;14.13;7.35;;;13.10;54.10;;;;;;1789635;80;21562;-74
2021/03/13 11:29:14;;;;;;;12.88;7.10;;;13.10;54.30;;;;;;1754168;80;21113;-74
2021/03/13 11:31:42;;;;;;;11.28;7.22;;;13.10;53.80;;;;;;1789582;80;21520;-74
2021/03/13 11:34:12;;;;;;;13.88;7.47;;;13.10;54.20;;;;;;1789935;80;21193;-73
2021/03/13 11:36:41;;;;;;;17.32;6.92;;;13.20;54.00;;;;;;1789384;80;21282;-73
2021/03/13 11:39:11;;;;;;;14.23;7.33;;;13.20;54.10;;;;;;1789752;80;21140;-74
2021/03/13 11:41:41;;;;;;;12.78;7.00;;;13.20;54.00;;;;;;1789464;80;21270;-74
2021/03/13 11:44:11;;;;;;;14.25;7.55;;;13.10;53.80;;;;;;1789848;80;21121;-75
2021/03/13 11:46:39;;;;;;;13.03;7.37;;;13.10;54.40;;;;;;1789716;80;21164;-74
2021/03/13 11:49:07;;;;;;;11.38;7.20;;;13.10;53.50;;;;;;1789515;80;21145;-73
2021/03/13 11:51:35;;;;;;;11.10;6.62;;;13.10;54.10;;;;;;1789717;80;21148;-74
2021/03/13 11:54:03;;;;;;;12.03;7.70;;;13.10;53.90;;;;;;1789499;80;21546;-75
2021/03/13 11:56:30;;;;;;;11.97;7.03;;;13.20;53.90;;;;;;1789630;80;21247;-74
2021/03/13 11:58:58;;;;;;;10.93;6.92;;;13.20;53.70;;;;;;1789691;80;21156;-75
2021/03/13 12:01:26;;;;;;;15.25;8.03;;;13.20;53.00;;;;;;1789809;80;21144;-74
2021/03/13 12:03:54;;;;;;;12.82;7.03;;;13.30;53.10;;;;;;1789517;80;21278;-74
2021/03/13 12:06:22;;;;;;;11.25;6.30;;;13.40;52.10;;;;;;1789694;80;21575;-74
2021/03/13 12:08:52;;;;;;;10.78;5.80;;;13.50;51.90;;;;;;1788559;80;21583;-74
2021/03/13 12:11:20;;;;;;;8.90;6.03;;;13.60;52.10;;;;;;1789527;80;21157;-74
2021/03/13 12:13:48;;;;;;;11.35;5.83;;;13.50;51.50;;;;;;1789473;80;21132;-74
2021/03/13 12:16:16;;;;;;;13.50;5.67;;;13.50;51.80;;;;;;1789521;80;21139;-74
2021/03/13 12:18:45;;;;;;;10.68;5.78;;;13.50;51.40;;;;;;1789461;80;21145;-73
2021/03/13 12:21:13;;;;;;;11.70;5.85;;;13.50;51.70;;;;;;1789604;80;21109;-73
2021/03/13 12:23:41;;;;;;;10.28;5.75;;;13.60;51.90;;;;;;1789490;80;21128;-74
2021/03/13 12:26:09;;;;;;;12.28;6.03;;;13.70;51.30;;;;;;1789495;80;21152;-74
2021/03/13 12:28:37;;;;;;;10.00;4.97;;;13.80;50.90;;;;;;1789784;80;21148;-73
2021/03/13 12:31:05;;;;;;;11.90;6.25;;;13.90;50.20;;;;;;1789699;80;21105;-73
2021/03/13 12:33:33;;;;;;;9.80;5.37;;;13.90;49.20;;;;;;1789697;80;21140;-74
2021/03/13 12:36:01;;;;;;;8.25;5.30;;;13.70;48.90;;;;;;1789482;80;21156;-74
2021/03/13 12:38:28;;;;;;;9.90;5.42;;;13.60;48.70;;;;;;1789876;80;21105;-73
2021/03/13 12:40:58;;;;;;;11.80;6.87;;;13.60;50.30;;;;;;1788106;80;21132;-74
2021/03/13 12:43:25;;;;;;;10.78;5.75;;;13.50;50.30;;;;;;1789695;80;21247;-73
2021/03/13 12:45:54;;;;;;;12.23;6.72;;;13.40;51.10;;;;;;1789635;80;21548;-74
2021/03/13 12:48:22;;;;;;;13.60;7.33;;;13.50;51.90;;;;;;1789478;80;21274;-74
2021/03/13 12:50:53;;;;;;;13.78;6.95;;;13.40;52.80;;;;;;1789677;80;21135;-74
2021/03/13 12:53:21;;;;;;;11.78;6.22;;;13.40;53.20;;;;;;1789632;80;21194;-73
2021/03/13 12:55:49;;;;;;;10.13;6.22;;;13.40;52.80;;;;;;1791346;80;21160;-74
2021/03/13 12:58:17;;;;;;;13.60;6.35;;;13.50;52.70;;;;;;1795517;80;21524;-74